Time;durP1;ratioP1;P1;durP2;ratioP2;P2;SDS_P1;SDS_P2;PMS_P1;PMS_P2;Temp;Humidity;BMP_temperature;BMP_pressure;BME280_temperature;BME280_humidity;BME280_pressure;Samples;Min_cycle;Max_cycle;Signal;HPM_P1;HPM_P2
2021/05/07 00:02:20;;;;;;;;;;;;;;;11.34;59.98;98705.41;5136448;27;19923;-71
2021/05/07 00:04:53;;;;;;;;;;;;;;;11.33;59.86;98712.22;5136245;27;19929;-71
2021/05/07 00:07:21;;;;;;;;;;;;;;;11.33;59.97;98719.03;5136082;27;19949;-73
2021/05/07 00:09:52;;;;;;;;;;;;;;;11.32;59.68;98725.03;5135526;27;19927;-72
2021/05/07 00:12:23;;;;;;;;;;;;;;;11.29;60.01;98730.19;5135970;27;19931;-72
2021/05/07 00:14:54;;;;;;;;;;;;;;;11.26;60.64;98732.78;5136210;27;19931;-72
2021/05/07 00:17:23;;;;;;;;;;;;;;;11.25;60.79;98736.25;5136134;27;20258;-72
2021/05/07 00:19:54;;;;;;;;;;;;;;;11.26;61.00;98740.47;5136410;27;19955;-72
2021/05/07 00:22:22;;;;;;;;;;;;;;;11.25;61.07;98739.59;5117765;27;19976;-72
2021/05/07 00:24:54;;;;;;;;;;;;;;;11.23;60.95;98743.06;5136028;27;19976;-72
2021/05/07 00:27:22;;;;;;;;;;;;;;;11.22;61.67;98733.72;5135984;27;19923;-72
2021/05/07 00:29:53;;;;;;;;;;;;;;;11.22;61.57;98732.03;5135886;27;19923;-72
2021/05/07 00:32:21;;;;;;;;;;;;;;;11.20;62.11;98730.38;5135651;27;20034;-72
2021/05/07 00:34:54;;;;;;;;;;;;;;;11.23;61.90;98720.06;5135561;27;19930;-71
2021/05/07 00:37:22;;;;;;;;;;;;;;;11.24;62.66;98726.88;5136061;27;19923;-72
2021/05/07 00:40:06;;;;;;;;;;;;;;;11.26;63.84;98709.81;5135555;27;20022;-72
2021/05/07 00:42:35;;;;;;;;;;;;;;;11.27;64.74;98701.28;5135657;27;19923;-72
2021/05/07 00:45:07;;;;;;;;;;;;;;;11.25;64.68;98697.94;5135410;27;20326;-72
2021/05/07 00:47:40;;;;;;;;;;;;;;;11.25;65.41;98697.94;5135664;27;19923;-71
2021/05/07 00:50:12;;;;;;;;;;;;;;;11.20;65.87;98690.34;5117105;27;19924;-71
2021/05/07 00:52:43;;;;;;;;;;;;;;;11.19;65.95;98677.59;5135360;27;20008;-71
2021/05/07 00:55:15;;;;;;;;;;;;;;;11.18;65.76;98688.69;5135414;27;19927;-72
2021/05/07 00:57:46;;;;;;;;;;;;;;;11.17;66.17;98687.00;5135487;27;20387;-72
2021/05/07 01:00:18;;;;;;;;;;;;;;;11.15;66.08;98686.19;5135531;27;19927;-72
2021/05/07 01:02:54;;;;;;;;;;;;;;;11.15;66.38;98691.31;5135447;27;19923;-72
2021/05/07 01:05:41;;;;;;;;;;;;;;;11.15;67.00;98678.53;5135442;27;19972;-72
2021/05/07 01:08:18;;;;;;;;;;;;;;;11.14;66.91;98679.41;5134916;27;20411;-71
2021/05/07 01:10:58;;;;;;;;;;;;;;;11.14;66.99;98675.13;5135428;27;20384;-72
2021/05/07 01:13:29;;;;;;;;;;;;;;;11.16;67.14;98683.59;5134887;27;19927;-71
2021/05/07 01:16:09;;;;;;;;;;;;;;;11.15;67.30;98688.75;5135196;27;19923;-71
2021/05/07 01:18:41;;;;;;;;;;;;;;;11.16;67.06;98692.97;5135329;28;20365;-70
2021/05/07 01:21:15;;;;;;;;;;;;;;;11.12;67.71;98681.13;5135006;27;19951;-72
2021/05/07 01:23:44;;;;;;;;;;;;;;;11.08;67.81;98692.28;5135198;28;19969;-71
2021/05/07 01:26:15;;;;;;;;;;;;;;;11.06;67.87;98687.19;5135150;28;19930;-72
2021/05/07 01:28:46;;;;;;;;;;;;;;;11.06;68.19;98688.94;5135191;28;20360;-72
2021/05/07 01:31:21;;;;;;;;;;;;;;;11.04;68.53;98683.00;5135141;28;19931;-72
2021/05/07 01:33:52;;;;;;;;;;;;;;;10.98;68.58;98678.00;5135929;28;19930;-72
2021/05/07 01:36:24;;;;;;;;;;;;;;;10.90;68.79;98682.41;5134765;28;19924;-72
2021/05/07 01:38:56;;;;;;;;;;;;;;;10.83;69.25;98678.28;5135075;28;19928;-72
2021/05/07 01:41:27;;;;;;;;;;;;;;;10.79;69.46;98695.38;5135085;28;19923;-71
2021/05/07 01:43:58;;;;;;;;;;;;;;;10.76;69.16;98698.81;5116548;28;19976;-72
2021/05/07 01:46:31;;;;;;;;;;;;;;;10.77;69.05;98700.47;5116734;28;20024;-72
2021/05/07 01:49:02;;;;;;;;;;;;;;;10.78;69.50;98711.53;5135261;28;19931;-72
2021/05/07 01:51:35;;;;;;;;;;;;;;;10.78;69.70;98702.19;5134897;28;19972;-72
2021/05/07 01:54:06;;;;;;;;;;;;;;;10.73;69.39;98703.97;5134941;28;19937;-72
2021/05/07 01:56:38;;;;;;;;;;;;;;;10.68;69.51;98698.09;5116617;28;19924;-71
2021/05/07 01:59:09;;;;;;;;;;;;;;;10.71;69.61;98689.56;5134897;28;19945;-72
2021/05/07 02:01:41;;;;;;;;;;;;;;;10.72;69.67;98681.84;5135207;28;19930;-72
2021/05/07 02:04:14;;;;;;;;;;;;;;;10.75;69.99;98681.81;5134872;28;19923;-72
2021/05/07 02:06:48;;;;;;;;;;;;;;;10.80;69.76;98683.47;5134778;28;20450;-72
2021/05/07 02:09:19;;;;;;;;;;;;;;;10.81;69.54;98680.03;5112582;28;20377;-72
2021/05/07 02:11:51;;;;;;;;;;;;;;;10.72;69.96;98692.06;5114987;28;20438;-72
2021/05/07 02:14:22;;;;;;;;;;;;;;;10.67;70.04;98691.31;5114308;28;19927;-72
2021/05/07 02:16:53;;;;;;;;;;;;;;;10.63;70.20;98689.69;5114244;28;19930;-72
2021/05/07 02:19:29;;;;;;;;;;;;;;;10.60;71.03;98687.19;5113059;28;20427;-72
2021/05/07 02:22:01;;;;;;;;;;;;;;;10.59;70.90;98675.28;5114208;28;20388;-71
2021/05/07 02:24:33;;;;;;;;;;;;;;;10.55;70.79;98683.03;5113003;28;19924;-72
2021/05/07 02:27:05;;;;;;;;;;;;;;;10.50;70.96;98695.00;5113845;28;19924;-72
2021/05/07 02:29:37;;;;;;;;;;;;;;;10.48;71.06;98684.00;5114108;28;19931;-72
2021/05/07 02:32:09;;;;;;;;;;;;;;;10.46;71.61;98661.03;5114289;28;20374;-72
2021/05/07 02:34:41;;;;;;;;;;;;;;;10.42;72.13;98672.19;5117411;28;19924;-72
2021/05/07 02:37:14;;;;;;;;;;;;;;;10.44;71.82;98690.84;5117643;28;20049;-72
2021/05/07 02:39:46;;;;;;;;;;;;;;;10.44;72.14;98690.84;5117953;28;19931;-72
2021/05/07 02:42:18;;;;;;;;;;;;;;;10.45;71.61;98687.44;5117900;28;19924;-72
2021/05/07 02:44:53;;;;;;;;;;;;;;;10.44;72.45;98697.66;5116404;28;19924;-72
2021/05/07 02:47:25;;;;;;;;;;;;;;;10.45;71.80;98696.78;5116284;28;19924;-72
2021/05/07 02:50:00;;;;;;;;;;;;;;;10.46;72.38;98690.84;5117461;28;19930;-72
2021/05/07 02:52:30;;;;;;;;;;;;;;;10.47;72.18;98685.69;5116041;28;19966;-72
2021/05/07 02:55:02;;;;;;;;;;;;;;;10.48;72.46;98687.41;5117349;28;19951;-72
2021/05/07 02:57:31;;;;;;;;;;;;;;;10.50;72.33;98695.88;5117096;28;20283;-72
2021/05/07 03:00:02;;;;;;;;;;;;;;;10.51;72.77;98697.53;5117176;28;20324;-71
2021/05/07 03:02:31;;;;;;;;;;;;;;;10.50;72.72;98698.41;5117200;28;19969;-72
2021/05/07 03:05:02;;;;;;;;;;;;;;;10.49;73.04;98701.81;5117361;28;19932;-72
2021/05/07 03:07:31;;;;;;;;;;;;;;;10.48;73.11;98702.69;5117466;27;19954;-73
2021/05/07 03:10:05;;;;;;;;;;;;;;;10.45;72.93;98701.91;5137619;27;19935;-72
2021/05/07 03:12:33;;;;;;;;;;;;;;;10.46;72.80;98689.09;5137126;27;20273;-72
2021/05/07 03:15:05;;;;;;;;;;;;;;;10.46;73.39;98689.09;5137420;27;19972;-70
2021/05/07 03:17:33;;;;;;;;;;;;;;;10.42;73.84;98684.94;5137721;27;19946;-72
2021/05/07 03:20:05;;;;;;;;;;;;;;;10.42;73.80;98686.63;5137336;27;19929;-72
2021/05/07 03:22:34;;;;;;;;;;;;;;;10.42;73.50;98676.44;5137313;27;20292;-72
2021/05/07 03:25:06;;;;;;;;;;;;;;;10.41;74.11;98675.63;5137209;27;20425;-72
2021/05/07 03:27:34;;;;;;;;;;;;;;;10.43;73.93;98684.06;5137182;27;19923;-72
2021/05/07 03:30:06;;;;;;;;;;;;;;;10.44;74.48;98679.78;5136889;27;20303;-72
2021/05/07 03:32:35;;;;;;;;;;;;;;;10.47;74.01;98689.97;5137303;27;20030;-72
2021/05/07 03:35:07;;;;;;;;;;;;;;;10.46;74.58;98693.38;5137063;27;20022;-72
2021/05/07 03:37:37;;;;;;;;;;;;;;;10.45;74.53;98695.09;5136996;27;19923;-72
2021/05/07 03:43:39;;;;;;;;;;;;;;;10.40;74.50;98713.88;5136738;27;19920;-72
2021/05/07 03:46:13;;;;;;;;;;;;;;;10.41;74.38;98718.97;5136894;27;20444;-72
2021/05/07 03:48:50;;;;;;;;;;;;;;;10.44;74.73;98711.25;5136748;27;19930;-72
2021/05/07 03:51:21;;;;;;;;;;;;;;;10.48;74.81;98718.00;5136730;27;19969;-72
2021/05/07 03:53:53;;;;;;;;;;;;;;;10.48;75.00;98712.91;5136359;27;19928;-72
2021/05/07 03:59:35;;;;;;;;;;;;;;;10.52;75.09;98714.53;5118025;27;19923;-72
2021/05/07 04:02:06;;;;;;;;;;;;;;;10.50;75.12;98718.81;5136492;27;19923;-72
2021/05/07 04:04:38;;;;;;;;;;;;;;;10.49;75.19;98714.56;5136526;27;19923;-72
2021/05/07 04:07:09;;;;;;;;;;;;;;;10.45;76.17;98717.19;5136739;27;19930;-72
2021/05/07 04:09:45;;;;;;;;;;;;;;;10.42;75.76;98719.78;5135266;27;19946;-72
2021/05/07 04:12:17;;;;;;;;;;;;;;;10.43;76.25;98732.53;5135874;27;19945;-72
2021/05/07 04:14:49;;;;;;;;;;;;;;;10.46;75.90;98724.81;5136291;27;19923;-72
2021/05/07 04:17:21;;;;;;;;;;;;;;;10.48;75.69;98729.91;5136287;27;19923;-72
2021/05/07 04:19:52;;;;;;;;;;;;;;;10.51;75.72;98728.16;5136188;27;20289;-73
2021/05/07 04:22:23;;;;;;;;;;;;;;;10.53;76.40;98731.50;5136154;27;19923;-72
2021/05/07 04:25:00;;;;;;;;;;;;;;;10.58;76.53;98734.00;5136105;27;19955;-72
2021/05/07 04:27:31;;;;;;;;;;;;;;;10.55;75.81;98747.66;5135977;27;20292;-72
2021/05/07 04:30:03;;;;;;;;;;;;;;;10.59;76.10;98750.97;5135920;27;20455;-71
2021/05/07 04:32:34;;;;;;;;;;;;;;;10.55;76.03;98760.41;5135779;27;19923;-71
2021/05/07 04:35:05;;;;;;;;;;;;;;;10.53;75.91;98767.22;5135894;27;19923;-71
2021/05/07 04:37:34;;;;;;;;;;;;;;;10.55;76.29;98762.97;5135854;27;19923;-72
2021/05/07 04:40:09;;;;;;;;;;;;;;;10.56;76.22;98772.28;5136002;27;19968;-72
2021/05/07 04:42:37;;;;;;;;;;;;;;;10.60;76.27;98776.50;5135748;27;19924;-72
2021/05/07 04:45:09;;;;;;;;;;;;;;;10.60;75.96;98768.84;5135724;27;19924;-72
2021/05/07 04:47:37;;;;;;;;;;;;;;;10.60;75.98;98773.94;5135707;27;19976;-72
2021/05/07 04:50:10;;;;;;;;;;;;;;;10.61;76.17;98762.00;5135168;27;19928;-71
2021/05/07 04:52:38;;;;;;;;;;;;;;;10.60;76.17;98771.41;5135115;27;20010;-71
2021/05/07 04:55:11;;;;;;;;;;;;;;;10.62;75.94;98777.31;5116952;27;19958;-72
2021/05/07 04:57:39;;;;;;;;;;;;;;;10.65;75.95;98777.25;5135295;27;20018;-72
2021/05/07 05:00:08;;;;;;;;;;;;;;;10.66;76.57;98767.88;5135274;27;19969;-72
2021/05/07 05:02:36;;;;;;;;;;;;;;;10.64;76.31;98774.72;5135465;27;19978;-72
2021/05/07 05:05:07;;;;;;;;;;;;;;;10.66;76.76;98778.09;5135367;27;19947;-72
2021/05/07 05:07:36;;;;;;;;;;;;;;;10.66;76.34;98778.94;5134572;27;19931;-73
2021/05/07 05:10:04;;;;;;;;;;;;;;;10.66;76.79;98767.88;5135318;27;19924;-72
2021/05/07 05:12:36;;;;;;;;;;;;;;;10.67;76.50;98770.44;5135115;27;19927;-72
2021/05/07 05:15:08;;;;;;;;;;;;;;;10.69;76.67;98767.84;5135350;27;20291;-72
2021/05/07 05:17:39;;;;;;;;;;;;;;;10.73;76.61;98772.03;5135255;27;19968;-72
2021/05/07 05:20:10;;;;;;;;;;;;;;;10.76;76.57;98770.28;5134769;28;19946;-72
2021/05/07 05:22:38;;;;;;;;;;;;;;;10.82;76.98;98777.00;5135463;28;19924;-73
2021/05/07 05:25:10;;;;;;;;;;;;;;;10.83;76.92;98785.47;5135259;28;20006;-72
2021/05/07 05:27:42;;;;;;;;;;;;;;;10.85;76.70;98783.72;5135215;28;19970;-72
2021/05/07 05:30:10;;;;;;;;;;;;;;;10.88;76.64;98781.13;5135138;28;19934;-72
2021/05/07 05:32:41;;;;;;;;;;;;;;;10.89;76.73;98780.28;5134671;28;20277;-73
2021/05/07 05:35:12;;;;;;;;;;;;;;;10.92;77.08;98785.34;5135048;28;20436;-71
2021/05/07 05:37:41;;;;;;;;;;;;;;;10.92;76.61;98775.13;5134990;28;20326;-72
2021/05/07 05:40:09;;;;;;;;;;;;;;;10.93;76.89;98774.25;5135196;28;20370;-72
2021/05/07 05:42:44;;;;;;;;;;;;;;;10.92;76.91;98775.97;5134950;28;19938;-72
2021/05/07 05:45:15;;;;;;;;;;;;;;;10.96;77.14;98784.41;5134859;28;20364;-72
2021/05/07 05:47:43;;;;;;;;;;;;;;;10.98;77.06;98775.88;5134917;28;20321;-72
2021/05/07 05:50:12;;;;;;;;;;;;;;;11.00;76.68;98778.38;5134843;28;20276;-72
2021/05/07 05:52:41;;;;;;;;;;;;;;;11.01;76.92;98780.09;5134713;28;19924;-72
2021/05/07 05:55:09;;;;;;;;;;;;;;;11.05;76.94;98771.50;5134873;28;19947;-73
2021/05/07 05:57:37;;;;;;;;;;;;;;;11.09;77.27;98768.00;5134879;28;19923;-71
2021/05/07 06:00:08;;;;;;;;;;;;;;;11.15;76.82;98762.81;5135069;28;20387;-72
2021/05/07 06:02:42;;;;;;;;;;;;;;;11.21;76.97;98775.44;5134735;28;20312;-72
2021/05/07 06:05:17;;;;;;;;;;;;;;;11.30;77.17;98780.41;5134816;27;19924;-72
2021/05/07 06:07:45;;;;;;;;;;;;;;;11.38;77.06;98776.84;5137140;27;19930;-72
2021/05/07 06:10:18;;;;;;;;;;;;;;;11.46;77.04;98774.16;5138425;27;19923;-72
2021/05/07 06:12:49;;;;;;;;;;;;;;;11.55;76.08;98768.84;5138547;27;19970;-73
2021/05/07 06:15:19;;;;;;;;;;;;;;;11.59;76.46;98765.34;5138259;27;19924;-72
2021/05/07 06:17:48;;;;;;;;;;;;;;;11.67;75.79;98783.94;5138295;27;20022;-71
2021/05/07 06:20:19;;;;;;;;;;;;;;;11.72;75.61;98783.88;5138435;27;19929;-72
2021/05/07 06:22:48;;;;;;;;;;;;;;;11.73;75.68;98793.25;5138446;27;19930;-72
2021/05/07 06:25:17;;;;;;;;;;;;;;;11.70;75.62;98793.31;5138112;27;19923;-72
2021/05/07 06:27:45;;;;;;;;;;;;;;;11.66;75.55;98792.47;5138191;27;20403;-72
2021/05/07 06:30:14;;;;;;;;;;;;;;;11.64;75.10;98786.56;5138166;27;20017;-72
2021/05/07 06:32:43;;;;;;;;;;;;;;;11.60;75.50;98779.84;5137914;27;19923;-71
2021/05/07 06:35:12;;;;;;;;;;;;;;;11.62;75.63;98785.75;5138405;27;20353;-71
2021/05/07 06:37:43;;;;;;;;;;;;;;;11.64;75.47;98778.03;5137956;27;19923;-71
2021/05/07 06:40:12;;;;;;;;;;;;;;;11.70;75.41;98778.81;5137844;27;19954;-72
2021/05/07 06:42:40;;;;;;;;;;;;;;;11.70;75.50;98783.94;5137732;27;19966;-72
2021/05/07 06:45:12;;;;;;;;;;;;;;;11.75;75.48;98778.72;5137943;27;19927;-72
2021/05/07 06:47:40;;;;;;;;;;;;;;;11.78;75.51;98776.94;5137797;27;19973;-72
2021/05/07 06:50:11;;;;;;;;;;;;;;;11.83;nan;98770.00;5137575;27;19930;-72
2021/05/07 06:52:43;;;;;;;;;;;;;;;11.88;75.23;98762.25;5137825;27;19935;-72
2021/05/07 06:55:12;;;;;;;;;;;;;;;11.92;75.45;98759.63;5137753;27;19924;-71
2021/05/07 06:57:40;;;;;;;;;;;;;;;11.97;75.18;98760.34;5137347;27;19962;-72
2021/05/07 07:00:12;;;;;;;;;;;;;;;12.00;75.15;98762.84;5119702;27;20364;-72
2021/05/07 07:02:44;;;;;;;;;;;;;;;12.01;75.11;98766.25;5137969;27;20325;-72
2021/05/07 07:05:16;;;;;;;;;;;;;;;11.97;74.74;98768.00;5137371;27;20388;-72
2021/05/07 07:07:44;;;;;;;;;;;;;;;12.02;74.74;98766.19;5137363;27;19929;-72
2021/05/07 07:10:21;;;;;;;;;;;;;;;12.10;74.66;98764.34;5137376;27;20017;-72
2021/05/07 07:12:49;;;;;;;;;;;;;;;12.17;74.80;98775.25;5137203;27;19924;-71
2021/05/07 07:15:20;;;;;;;;;;;;;;;12.23;74.62;98771.75;5137008;27;19962;-71
2021/05/07 07:17:48;;;;;;;;;;;;;;;12.31;74.69;98773.25;5136751;27;19924;-71
2021/05/07 07:20:18;;;;;;;;;;;;;;;12.41;74.44;98766.19;5136871;27;19927;-70
2021/05/07 07:22:46;;;;;;;;;;;;;;;12.51;74.24;98757.44;5137910;27;19923;-71
2021/05/07 07:25:24;;;;;;;;;;;;;;;12.57;73.82;98752.19;5087310;27;19965;-70
2021/05/07 07:27:52;;;;;;;;;;;;;;;12.62;73.36;98768.28;5136990;27;19963;-72
2021/05/07 07:30:21;;;;;;;;;;;;;;;12.72;72.91;98764.59;5137070;27;19931;-72
2021/05/07 07:32:49;;;;;;;;;;;;;;;12.86;73.12;98767.66;5137195;27;19931;-72
2021/05/07 07:35:21;;;;;;;;;;;;;;;12.93;72.60;98769.22;5137031;27;20337;-72
2021/05/07 07:40:32;;;;;;;;;;;;;;;13.04;72.41;98784.31;5093839;28;19924;-72
2021/05/07 07:43:00;;;;;;;;;;;;;;;13.12;72.24;98793.53;5093858;28;19927;-72
2021/05/07 07:45:31;;;;;;;;;;;;;;;13.14;72.25;98794.34;5093094;28;19928;-72
2021/05/07 07:47:59;;;;;;;;;;;;;;;13.18;72.21;98795.94;5093500;28;20344;-72
2021/05/07 07:50:28;;;;;;;;;;;;;;;13.26;72.20;98801.72;5093367;28;20324;-72
2021/05/07 07:52:57;;;;;;;;;;;;;;;13.35;71.87;98804.03;5092949;28;19924;-72
2021/05/07 07:55:25;;;;;;;;;;;;;;;13.48;72.00;98804.56;5093336;28;19924;-72
2021/05/07 07:57:53;;;;;;;;;;;;;;;13.60;71.36;98798.25;5093498;28;19978;-72
2021/05/07 08:00:21;;;;;;;;;;;;;;;13.67;70.84;98799.75;5093478;28;20355;-72
2021/05/07 08:02:54;;;;;;;;;;;;;;;13.73;70.26;98807.28;5093384;28;19959;-72
2021/05/07 08:05:24;;;;;;;;;;;;;;;13.78;69.91;98802.88;5093414;28;19932;-71
2021/05/07 08:07:57;;;;;;;;;;;;;;;13.79;69.99;98794.31;5092837;28;19948;-71
2021/05/07 08:10:28;;;;;;;;;;;;;;;13.82;69.61;98794.22;5092034;28;20027;-71
2021/05/07 08:12:56;;;;;;;;;;;;;;;13.86;69.30;98801.78;5092960;28;19931;-70
2021/05/07 08:15:26;;;;;;;;;;;;;;;13.98;69.50;98803.16;5076270;28;19925;-70
2021/05/07 08:17:54;;;;;;;;;;;;;;;14.15;68.97;98803.53;5106004;28;19975;-70
2021/05/07 08:20:27;;;;;;;;;;;;;;;14.30;68.67;98808.22;5115445;28;19924;-70
2021/05/07 08:22:56;;;;;;;;;;;;;;;14.41;68.49;98806.19;5116143;28;19924;-70
2021/05/07 08:25:28;;;;;;;;;;;;;;;14.52;68.31;98804.13;5115158;28;19924;-72
2021/05/07 08:28:00;;;;;;;;;;;;;;;14.57;68.23;98817.66;5115478;28;19973;-70
2021/05/07 08:30:31;;;;;;;;;;;;;;;14.59;68.37;98821.00;5114581;28;20022;-71
2021/05/07 08:32:59;;;;;;;;;;;;;;;14.57;67.85;98815.09;5115196;28;19947;-71
2021/05/07 08:35:27;;;;;;;;;;;;;;;14.55;67.72;98814.31;5115587;28;19951;-71
2021/05/07 08:37:56;;;;;;;;;;;;;;;14.52;67.58;98809.25;5115136;28;19959;-71
2021/05/07 08:40:24;;;;;;;;;;;;;;;14.48;66.45;98807.69;5115118;28;20315;-72
2021/05/07 08:42:54;;;;;;;;;;;;;;;14.46;66.25;98819.72;5115178;28;19970;-72
2021/05/07 08:45:22;;;;;;;;;;;;;;;14.53;65.43;98805.81;5113730;28;19924;-72
2021/05/07 08:48:14;;;;;;;;;;;;;;;14.65;64.81;98800.31;5115670;28;19985;-72
2021/05/07 08:50:49;;;;;;;;;;;;;;;14.76;64.60;98802.50;5115017;28;19931;-71
2021/05/07 08:53:18;;;;;;;;;;;;;;;14.83;64.29;98792.91;5114824;28;19923;-70
2021/05/07 08:55:49;;;;;;;;;;;;;;;14.91;63.59;98778.06;5114653;28;19924;-70
2021/05/07 08:58:18;;;;;;;;;;;;;;;14.98;63.20;98771.81;5114996;28;20396;-70
2021/05/07 09:00:49;;;;;;;;;;;;;;;15.11;63.09;98767.97;5114981;28;20327;-70
2021/05/07 09:03:18;;;;;;;;;;;;;;;15.28;62.66;98755.38;5114906;28;19924;-71
2021/05/07 09:05:50;;;;;;;;;;;;;;;15.58;62.33;98764.63;5114882;28;19947;-70
2021/05/07 09:08:18;;;;;;;;;;;;;;;15.93;61.18;98756.47;5119520;27;19947;-70
2021/05/07 09:10:49;;;;;;;;;;;;;;;16.24;60.46;98765.63;5135040;27;19930;-72
2021/05/07 09:13:21;;;;;;;;;;;;;;;16.47;59.56;98762.97;5134936;27;20391;-71
2021/05/07 09:15:50;;;;;;;;;;;;;;;16.66;58.08;98758.81;5135308;27;19977;-76
2021/05/07 09:18:19;;;;;;;;;;;;;;;16.83;57.87;98771.84;5135545;27;19930;-72
2021/05/07 09:20:51;;;;;;;;;;;;;;;17.09;57.90;98769.06;5135556;27;19923;-70
2021/05/07 09:23:23;;;;;;;;;;;;;;;17.12;55.84;98763.78;5135431;28;19923;-73
2021/05/07 09:26:00;;;;;;;;;;;;;;;17.02;56.04;98764.22;5135001;28;19934;-71
2021/05/07 09:28:29;;;;;;;;;;;;;;;16.89;56.03;98766.47;5135054;28;19946;-71
2021/05/07 09:31:13;;;;;;;;;;;;;;;16.68;55.08;98767.31;5134954;28;20293;-71
2021/05/07 09:33:45;;;;;;;;;;;;;;;16.60;55.46;98762.47;5134742;28;20018;-72
2021/05/07 09:36:23;;;;;;;;;;;;;;;16.56;55.44;98767.81;5134894;28;19931;-73
2021/05/07 09:38:59;;;;;;;;;;;;;;;16.52;54.57;98773.97;5134909;28;19923;-73
2021/05/07 09:41:54;;;;;;;;;;;;;;;16.44;54.17;98768.25;5137840;27;19927;-72
2021/05/07 09:44:28;;;;;;;;;;;;;;;16.45;54.00;98745.03;5138948;27;19927;-71
2021/05/07 09:46:59;;;;;;;;;;;;;;;16.62;53.20;98736.66;5138858;27;19930;-71
2021/05/07 09:49:30;;;;;;;;;;;;;;;17.06;53.22;98733.06;5139189;27;19946;-71
2021/05/07 09:52:01;;;;;;;;;;;;;;;17.44;51.78;98732.28;5139114;27;20032;-71
2021/05/07 09:54:33;;;;;;;;;;;;;;;17.79;51.03;98711.84;5138978;27;20331;-71
2021/05/07 09:57:05;;;;;;;;;;;;;;;18.01;50.82;98707.38;5138946;27;19923;-71
2021/05/07 09:59:38;;;;;;;;;;;;;;;18.02;50.30;98716.78;5138879;27;19924;-73
2021/05/07 10:02:12;;;;;;;;;;;;;;;17.92;50.37;98715.56;5138539;27;19955;-72
2021/05/07 10:04:44;;;;;;;;;;;;;;;17.97;50.09;98723.94;5138676;27;19928;-71
2021/05/07 10:07:13;;;;;;;;;;;;;;;18.01;49.74;98740.94;5138632;27;19927;-72
2021/05/07 10:09:44;;;;;;;;;;;;;;;17.89;49.41;98742.34;5137569;27;20010;-72
2021/05/07 10:12:17;;;;;;;;;;;;;;;17.76;49.66;98730.03;5138950;27;20006;-71
2021/05/07 10:14:49;;;;;;;;;;;;;;;17.70;50.08;98725.16;5138381;27;19924;-72
2021/05/07 10:17:20;;;;;;;;;;;;;;;17.71;50.43;98732.00;5138513;27;19923;-72
2021/05/07 10:19:53;;;;;;;;;;;;;;;17.88;50.61;98724.31;5139434;27;19927;-70
2021/05/07 10:22:36;;;;;;;;;;;;;;;18.02;49.72;98707.28;5138536;27;20337;-69
2021/05/07 10:25:15;;;;;;;;;;;;;;;18.02;49.35;98722.78;5138330;27;19954;-70
2021/05/07 10:27:48;;;;;;;;;;;;;;;17.71;48.86;98737.16;5138156;27;19927;-72
2021/05/07 10:30:27;;;;;;;;;;;;;;;17.47;49.07;98744.19;5137924;27;19930;-72
2021/05/07 10:32:59;;;;;;;;;;;;;;;17.40;50.22;98738.47;5138181;27;19923;-72
2021/05/07 10:35:35;;;;;;;;;;;;;;;17.44;49.93;98739.19;5137931;27;19930;-71
2021/05/07 10:38:07;;;;;;;;;;;;;;;17.40;49.97;98727.31;5138157;27;19923;-72
2021/05/07 10:40:39;;;;;;;;;;;;;;;17.43;50.42;98727.19;5138122;27;20372;-71
2021/05/07 10:43:08;;;;;;;;;;;;;;;17.50;50.28;98722.59;5138002;27;19954;-71
2021/05/07 10:45:40;;;;;;;;;;;;;;;17.63;50.11;98723.78;5137680;27;19992;-71
2021/05/07 10:48:13;;;;;;;;;;;;;;;17.86;49.62;98741.63;5138008;27;19954;-71
2021/05/07 10:50:45;;;;;;;;;;;;;;;18.06;49.59;98739.84;5137826;27;20291;-71
2021/05/07 10:53:23;;;;;;;;;;;;;;;18.14;49.90;98747.22;5136967;27;19927;-72
2021/05/07 10:55:55;;;;;;;;;;;;;;;18.19;49.97;98740.09;5137798;27;19972;-72
2021/05/07 10:58:30;;;;;;;;;;;;;;;18.42;50.01;98751.94;5137727;27;20373;-73
2021/05/07 11:01:25;;;;;;;;;;;;;;;18.32;48.91;98758.44;5137747;27;20384;-72
2021/05/07 11:04:00;;;;;;;;;;;;;;;17.98;48.58;98747.09;5137907;27;19923;-71
2021/05/07 11:06:32;;;;;;;;;;;;;;;17.85;49.24;98735.63;5137698;27;19985;-71
2021/05/07 11:09:17;;;;;;;;;;;;;;;17.80;49.37;98729.03;5136598;27;20333;-71
2021/05/07 11:11:45;;;;;;;;;;;;;;;17.76;49.18;98738.63;5137500;27;19924;-71
2021/05/07 11:14:17;;;;;;;;;;;;;;;17.71;48.97;98742.31;5137099;27;19981;-71
2021/05/07 11:16:49;;;;;;;;;;;;;;;17.67;48.41;98735.63;5137680;27;19930;-70
2021/05/07 11:19:22;;;;;;;;;;;;;;;17.68;48.20;98737.31;5137414;27;19976;-70
2021/05/07 11:21:54;;;;;;;;;;;;;;;17.65;47.63;98716.78;5137242;27;20292;-72
2021/05/07 11:24:26;;;;;;;;;;;;;;;17.67;47.23;98705.50;5137294;27;19923;-72
2021/05/07 11:26:57;;;;;;;;;;;;;;;17.72;47.04;98718.19;5137035;27;19923;-72
2021/05/07 11:29:32;;;;;;;;;;;;;;;17.91;47.83;98726.78;5137159;27;19930;-71
2021/05/07 11:32:14;;;;;;;;;;;;;;;18.05;47.67;98711.47;5137171;27;19924;-71
2021/05/07 11:34:51;;;;;;;;;;;;;;;18.22;48.22;98721.88;5136768;27;19929;-71
2021/05/07 11:37:20;;;;;;;;;;;;;;;18.62;47.38;98744.94;5136991;27;19923;-71
2021/05/07 11:39:57;;;;;;;;;;;;;;;18.59;46.89;98734.75;5136820;27;19927;-70
2021/05/07 11:42:29;;;;;;;;;;;;;;;18.42;47.02;98732.13;5136970;27;19923;-72
2021/05/07 11:45:00;;;;;;;;;;;;;;;18.20;47.90;98726.28;5136899;27;19923;-72
2021/05/07 11:47:32;;;;;;;;;;;;;;;17.89;48.78;98731.19;5136814;27;19971;-72
2021/05/07 11:50:06;;;;;;;;;;;;;;;17.57;49.91;98749.81;5136769;27;19939;-72
2021/05/07 11:52:40;;;;;;;;;;;;;;;17.36;50.79;98752.41;5136939;27;19981;-72
2021/05/07 11:55:09;;;;;;;;;;;;;;;17.11;51.09;98756.94;5136567;27;19924;-72
2021/05/07 11:57:40;;;;;;;;;;;;;;;16.95;52.00;98755.91;5136588;27;19923;-72
2021/05/07 12:00:19;;;;;;;;;;;;;;;16.77;52.58;98751.50;5136782;27;19931;-72
2021/05/07 12:02:58;;;;;;;;;;;;;;;16.65;52.71;98752.00;5136562;27;19930;-72
2021/05/07 12:05:31;;;;;;;;;;;;;;;16.53;53.46;98747.34;5136753;27;19924;-72
2021/05/07 12:07:59;;;;;;;;;;;;;;;16.41;54.29;98752.94;5135240;27;19923;-71
2021/05/07 12:10:28;;;;;;;;;;;;;;;16.31;55.39;98751.59;5136371;27;19923;-71
2021/05/07 12:13:00;;;;;;;;;;;;;;;16.25;56.31;98747.53;5136077;27;19924;-71
2021/05/07 12:15:43;;;;;;;;;;;;;;;16.22;57.09;98754.53;5136246;27;19924;-70
2021/05/07 12:18:17;;;;;;;;;;;;;;;16.18;58.35;98753.81;5136149;27;19938;-70
2021/05/07 12:20:51;;;;;;;;;;;;;;;16.13;59.96;98757.44;5136070;27;19924;-70
2021/05/07 12:23:19;;;;;;;;;;;;;;;16.02;62.36;98751.00;5135935;27;19958;-71
2021/05/07 12:25:48;;;;;;;;;;;;;;;15.96;63.80;98752.94;5136291;27;19930;-70
2021/05/07 12:28:18;;;;;;;;;;;;;;;15.91;64.67;98765.97;5135965;27;19923;-70
2021/05/07 12:30:49;;;;;;;;;;;;;;;15.89;64.91;98765.19;5135870;27;19923;-70
2021/05/07 12:33:19;;;;;;;;;;;;;;;15.87;63.58;98769.56;5135820;27;19928;-70
2021/05/07 12:35:55;;;;;;;;;;;;;;;15.90;62.94;98764.31;5135740;27;19923;-70
2021/05/07 12:38:28;;;;;;;;;;;;;;;16.01;62.59;98757.03;5135702;27;19952;-70
2021/05/07 12:41:00;;;;;;;;;;;;;;;16.22;62.47;98747.63;5135779;27;19930;-70
2021/05/07 12:43:29;;;;;;;;;;;;;;;16.39;61.60;98750.41;5135670;27;19923;-71
2021/05/07 12:46:01;;;;;;;;;;;;;;;16.48;60.21;98762.94;5135955;27;19958;-70
2021/05/07 12:48:55;;;;;;;;;;;;;;;16.41;58.45;98765.81;5135625;27;20024;-71
2021/05/07 12:51:25;;;;;;;;;;;;;;;16.34;57.52;98777.25;5135627;27;19923;-70
2021/05/07 12:53:56;;;;;;;;;;;;;;;16.29;56.71;98779.16;5116890;27;20384;-70
2021/05/07 12:56:27;;;;;;;;;;;;;;;16.25;56.52;98785.31;5117238;27;20380;-70
2021/05/07 12:59:04;;;;;;;;;;;;;;;16.23;56.41;98793.09;5135510;27;20312;-70
2021/05/07 13:01:35;;;;;;;;;;;;;;;16.25;56.50;98787.88;5135410;27;20388;-70
2021/05/07 13:04:06;;;;;;;;;;;;;;;16.27;55.98;98786.91;5135486;27;19923;-70
2021/05/07 13:06:38;;;;;;;;;;;;;;;16.31;55.90;98797.97;5135381;27;19923;-70
2021/05/07 13:09:06;;;;;;;;;;;;;;;16.37;56.30;98797.72;5134312;27;20357;-70
2021/05/07 13:11:39;;;;;;;;;;;;;;;16.32;55.89;98799.63;5135290;27;19930;-70
2021/05/07 13:14:11;;;;;;;;;;;;;;;16.32;56.16;98789.31;5135124;27;19923;-70
2021/05/07 13:16:42;;;;;;;;;;;;;;;16.33;55.96;98785.88;5135238;27;20014;-70
2021/05/07 13:19:11;;;;;;;;;;;;;;;16.32;55.81;98794.47;5135556;27;20010;-71
2021/05/07 13:21:42;;;;;;;;;;;;;;;16.34;55.46;98798.66;5135243;27;19959;-70